Time;durP1;ratioP1;P1;durP2;ratioP2;P2;SDS_P1;SDS_P2;PMS_P1;PMS_P2;Temp;Humidity;BMP_temperature;BMP_pressure;BME280_temperature;BME280_humidity;BME280_pressure;Samples;Min_cycle;Max_cycle;Signal;HPM_P1;HPM_P2
2022/10/31 00:00:57;;;;;;;46.25;22.17;;;;;;;;;;4987474;28;20046;-91
2022/10/31 00:03:23;;;;;;;42.92;23.45;;;;;;;;;;4969434;28;20121;-91
2022/10/31 00:05:50;;;;;;;49.42;22.52;;;;;;;;;;4981615;28;20047;-88
2022/10/31 00:08:17;;;;;;;45.60;23.27;;;;;;;;;;4979044;28;20410;-93
2022/10/31 00:10:43;;;;;;;47.65;24.13;;;;;;;;;;4954430;28;20083;-87
2022/10/31 00:13:10;;;;;;;49.13;24.55;;;;;;;;;;4965334;28;20123;-91
2022/10/31 00:15:37;;;;;;;44.47;23.90;;;;;;;;;;4935358;28;20043;-92
2022/10/31 00:18:03;;;;;;;58.05;25.45;;;;;;;;;;4976443;28;20035;-88
2022/10/31 00:20:32;;;;;;;46.67;24.15;;;;;;;;;;4964821;28;20061;-87
2022/10/31 00:25:36;;;;;;;45.92;22.17;;;;;;;;;;5011030;28;20050;-88
2022/10/31 00:28:03;;;;;;;45.30;23.30;;;;;;;;;;4995694;28;20573;-90
2022/10/31 00:30:29;;;;;;;54.17;25.00;;;;;;;;;;4992871;28;20050;-87
2022/10/31 00:32:55;;;;;;;49.50;22.52;;;;;;;;;;4990913;28;20065;-90
2022/10/31 00:35:21;;;;;;;36.53;21.80;;;;;;;;;;4966980;28;20407;-87
2022/10/31 00:37:47;;;;;;;45.85;23.20;;;;;;;;;;4984383;28;20402;-89
2022/10/31 00:40:13;;;;;;;52.35;24.80;;;;;;;;;;4994105;28;20657;-87
2022/10/31 00:42:41;;;;;;;52.88;23.55;;;;;;;;;;4998587;28;20042;-85
2022/10/31 00:45:08;;;;;;;49.75;25.52;;;;;;;;;;4997411;28;20050;-92
2022/10/31 00:47:34;;;;;;;56.72;23.50;;;;;;;;;;4988878;28;20135;-90
2022/10/31 00:50:00;;;;;;;52.17;24.05;;;;;;;;;;4946775;28;20184;-88
2022/10/31 00:52:27;;;;;;;49.13;23.83;;;;;;;;;;4965453;28;20042;-85
2022/10/31 00:54:53;;;;;;;46.97;24.08;;;;;;;;;;4980176;28;20069;-85
2022/10/31 00:57:28;;;;;;;48.00;24.58;;;;;;;;;;4978227;28;20042;-91
2022/10/31 01:00:07;;;;;;;54.08;24.73;;;;;;;;;;5002030;28;20071;-88
2022/10/31 01:02:33;;;;;;;49.05;25.08;;;;;;;;;;4979887;28;20046;-86
2022/10/31 01:05:08;;;;;;;46.83;25.25;;;;;;;;;;4990163;28;20092;-93
2022/10/31 01:07:47;;;;;;;61.75;27.25;;;;;;;;;;4980966;28;20410;-91
2022/10/31 01:10:13;;;;;;;45.15;26.10;;;;;;;;;;4996342;28;20053;-86
2022/10/31 01:12:47;;;;;;;50.10;26.73;;;;;;;;;;5016775;28;20038;-91
2022/10/31 01:15:14;;;;;;;53.95;27.42;;;;;;;;;;4998764;28;20077;-85
2022/10/31 01:17:41;;;;;;;48.30;26.85;;;;;;;;;;4996614;28;20403;-86
2022/10/31 01:20:07;;;;;;;44.38;24.70;;;;;;;;;;4998455;28;20050;-86
2022/10/31 01:22:34;;;;;;;46.28;24.98;;;;;;;;;;4990953;28;20046;-90
2022/10/31 01:25:00;;;;;;;48.03;25.25;;;;;;;;;;5006397;28;20054;-86
2022/10/31 01:27:26;;;;;;;54.75;26.92;;;;;;;;;;4999211;28;20058;-85
2022/10/31 01:29:52;;;;;;;53.15;26.83;;;;;;;;;;5016513;28;20132;-90
2022/10/31 01:32:18;;;;;;;52.03;26.48;;;;;;;;;;4973192;28;20042;-86
2022/10/31 01:34:44;;;;;;;49.13;25.73;;;;;;;;;;5016682;28;20102;-88
2022/10/31 01:37:10;;;;;;;47.53;27.40;;;;;;;;;;4972769;28;20042;-85
2022/10/31 01:39:36;;;;;;;47.03;26.55;;;;;;;;;;4982524;28;20519;-88
2022/10/31 01:42:03;;;;;;;55.85;27.95;;;;;;;;;;4993179;28;20537;-86
2022/10/31 01:44:29;;;;;;;50.17;27.17;;;;;;;;;;4980110;28;21219;-89
2022/10/31 01:47:13;;;;;;;50.45;26.15;;;;;;;;;;4965558;28;20494;-88
2022/10/31 01:49:39;;;;;;;46.65;24.42;;;;;;;;;;4969197;28;20089;-89
2022/10/31 01:52:19;;;;;;;49.85;25.73;;;;;;;;;;4999407;28;20520;-88
2022/10/31 01:54:48;;;;;;;50.83;27.67;;;;;;;;;;5003295;28;20046;-88
2022/10/31 01:57:15;;;;;;;44.83;24.10;;;;;;;;;;4988043;28;20224;-91
2022/10/31 01:59:43;;;;;;;48.72;28.15;;;;;;;;;;4972292;28;20050;-94
2022/10/31 02:02:10;;;;;;;56.45;27.13;;;;;;;;;;4988881;28;20038;-92
2022/10/31 02:04:36;;;;;;;50.15;28.80;;;;;;;;;;4983602;28;20487;-93
2022/10/31 02:07:11;;;;;;;57.58;28.98;;;;;;;;;;4985606;28;20038;-91
2022/10/31 02:09:38;;;;;;;56.03;30.63;;;;;;;;;;5021301;28;20053;-93
2022/10/31 02:12:04;;;;;;;62.50;29.23;;;;;;;;;;5004047;28;20038;-92
2022/10/31 02:14:31;;;;;;;49.63;28.77;;;;;;;;;;5006152;28;20053;-90
2022/10/31 02:16:58;;;;;;;48.17;28.02;;;;;;;;;;4993459;28;20052;-90
2022/10/31 02:19:36;;;;;;;46.00;26.60;;;;;;;;;;4974408;28;20582;-89
2022/10/31 02:22:13;;;;;;;53.88;28.10;;;;;;;;;;4988517;28;20097;-90
2022/10/31 02:24:41;;;;;;;53.17;27.10;;;;;;;;;;4988666;28;20100;-91
2022/10/31 02:27:13;;;;;;;56.83;29.15;;;;;;;;;;4973060;28;20057;-90
2022/10/31 02:29:40;;;;;;;59.85;30.52;;;;;;;;;;4973181;28;20054;-92
2022/10/31 02:32:10;;;;;;;56.72;27.48;;;;;;;;;;4991737;28;20078;-87
2022/10/31 02:34:47;;;;;;;53.67;30.05;;;;;;;;;;4993530;28;20454;-90
2022/10/31 02:37:15;;;;;;;66.18;27.65;;;;;;;;;;5022278;28;20081;-88
2022/10/31 02:39:55;;;;;;;57.45;27.17;;;;;;;;;;4993079;28;20042;-87
2022/10/31 02:42:21;;;;;;;54.20;27.40;;;;;;;;;;4990794;28;20046;-87
2022/10/31 02:45:05;;;;;;;53.65;27.50;;;;;;;;;;4991292;28;20046;-90
2022/10/31 02:47:42;;;;;;;52.78;26.00;;;;;;;;;;5010736;28;20050;-91
2022/10/31 02:50:08;;;;;;;50.42;26.65;;;;;;;;;;5001704;28;20049;-87
2022/10/31 02:52:43;;;;;;;48.15;25.63;;;;;;;;;;4992543;28;20034;-93
2022/10/31 02:55:32;;;;;;;49.53;25.90;;;;;;;;;;4985371;28;20050;-88
2022/10/31 02:58:01;;;;;;;47.30;26.05;;;;;;;;;;4946768;28;20054;-86
2022/10/31 03:00:30;;;;;;;52.40;26.20;;;;;;;;;;4991407;28;20124;-85
2022/10/31 03:02:56;;;;;;;53.15;26.23;;;;;;;;;;4988473;28;20380;-90
2022/10/31 03:05:41;;;;;;;55.28;28.58;;;;;;;;;;5016843;28;20773;-90
2022/10/31 03:10:48;;;;;;;51.65;26.92;;;;;;;;;;4977868;23;20051;-92
2022/10/31 03:13:32;;;;;;;54.85;28.02;;;;;;;;;;4988741;28;20075;-92
2022/10/31 03:16:10;;;;;;;58.88;26.90;;;;;;;;;;4951724;28;20039;-90
2022/10/31 03:18:40;;;;;;;59.42;28.00;;;;;;;;;;4994751;28;20069;-91
2022/10/31 03:21:19;;;;;;;56.38;26.90;;;;;;;;;;4978393;28;20038;-94
2022/10/31 03:23:48;;;;;;;46.83;26.70;;;;;;;;;;4967382;28;20551;-93
2022/10/31 03:26:15;;;;;;;56.40;29.23;;;;;;;;;;4983125;28;20492;-90
2022/10/31 03:28:58;;;;;;;59.15;27.80;;;;;;;;;;4974894;28;20045;-93
2022/10/31 03:31:39;;;;;;;63.67;27.77;;;;;;;;;;4962428;28;20063;-93
2022/10/31 03:34:06;;;;;;;54.88;26.27;;;;;;;;;;4968014;28;20297;-92
2022/10/31 03:36:34;;;;;;;57.55;28.40;;;;;;;;;;4966421;28;20031;-92
2022/10/31 03:39:02;;;;;;;50.38;26.25;;;;;;;;;;4978276;28;20066;-95
2022/10/31 03:41:29;;;;;;;54.20;26.45;;;;;;;;;;4969456;28;20043;-93
2022/10/31 03:43:58;;;;;;;49.20;25.60;;;;;;;;;;4952812;28;20043;-92
2022/10/31 03:46:24;;;;;;;52.05;26.35;;;;;;;;;;4958974;28;20049;-87
2022/10/31 03:48:50;;;;;;;50.53;26.67;;;;;;;;;;4934296;28;20058;-88
2022/10/31 03:51:38;;;;;;;44.53;24.45;;;;;;;;;;4950973;28;20133;-92
2022/10/31 03:54:10;;;;;;;46.47;24.30;;;;;;;;;;4932589;28;20133;-90
2022/10/31 03:56:57;;;;;;;47.45;24.00;;;;;;;;;;4975061;28;20035;-93
2022/10/31 03:59:26;;;;;;;45.67;25.48;;;;;;;;;;4966400;28;20038;-89
2022/10/31 04:02:07;;;;;;;50.85;25.70;;;;;;;;;;4969668;28;20070;-91
2022/10/31 04:04:33;;;;;;;47.92;25.80;;;;;;;;;;4981066;28;20050;-90
2022/10/31 04:07:00;;;;;;;52.85;25.35;;;;;;;;;;4977528;28;20082;-89
2022/10/31 04:09:31;;;;;;;49.40;26.85;;;;;;;;;;4949268;28;20063;-92
2022/10/31 04:12:00;;;;;;;49.83;26.25;;;;;;;;;;4971878;28;20062;-92
2022/10/31 04:14:28;;;;;;;55.63;28.63;;;;;;;;;;4965464;28;20030;-88
2022/10/31 04:16:54;;;;;;;58.03;27.92;;;;;;;;;;4941470;28;20118;-94
2022/10/31 04:19:20;;;;;;;49.22;27.40;;;;;;;;;;4986529;28;20042;-92
2022/10/31 04:21:46;;;;;;;47.97;26.10;;;;;;;;;;4971898;28;20057;-92
2022/10/31 04:24:12;;;;;;;46.03;25.52;;;;;;;;;;4954539;28;20526;-93
2022/10/31 04:26:39;;;;;;;40.13;24.88;;;;;;;;;;4924707;28;20077;-91
2022/10/31 04:29:05;;;;;;;47.05;24.08;;;;;;;;;;4969839;28;20057;-91
2022/10/31 04:31:31;;;;;;;40.78;23.65;;;;;;;;;;4976959;28;20054;-91
2022/10/31 04:33:59;;;;;;;49.22;23.92;;;;;;;;;;4956389;28;20027;-93
2022/10/31 04:36:30;;;;;;;43.05;23.83;;;;;;;;;;4972615;28;20050;-94
2022/10/31 04:38:56;;;;;;;42.58;23.20;;;;;;;;;;4987919;28;20050;-94
2022/10/31 04:41:22;;;;;;;43.90;24.50;;;;;;;;;;4973157;28;20049;-92
2022/10/31 04:43:48;;;;;;;45.22;24.00;;;;;;;;;;4970639;28;20046;-94
2022/10/31 04:46:14;;;;;;;46.28;23.98;;;;;;;;;;4940610;28;20034;-91
2022/10/31 04:48:40;;;;;;;43.67;24.10;;;;;;;;;;4971110;28;20066;-90
2022/10/31 04:51:06;;;;;;;46.38;24.67;;;;;;;;;;4989733;28;20046;-87
2022/10/31 04:53:32;;;;;;;45.20;23.98;;;;;;;;;;4990154;28;20050;-93
2022/10/31 04:56:00;;;;;;;43.53;24.58;;;;;;;;;;4924991;29;20098;-93
2022/10/31 04:58:26;;;;;;;46.17;23.63;;;;;;;;;;4936665;28;20144;-91
2022/10/31 05:00:53;;;;;;;41.40;22.83;;;;;;;;;;4967684;28;20925;-92
2022/10/31 05:03:20;;;;;;;40.67;22.42;;;;;;;;;;4954745;28;20069;-92
2022/10/31 05:05:46;;;;;;;41.85;22.35;;;;;;;;;;4950417;28;20502;-91
2022/10/31 05:08:13;;;;;;;40.45;23.27;;;;;;;;;;4936617;28;20050;-90
2022/10/31 05:10:39;;;;;;;43.20;24.17;;;;;;;;;;4987330;28;20804;-93
2022/10/31 05:13:05;;;;;;;45.20;24.25;;;;;;;;;;4945066;28;20085;-93
2022/10/31 05:15:34;;;;;;;41.95;23.33;;;;;;;;;;4986368;28;20077;-95
2022/10/31 05:18:01;;;;;;;46.25;24.23;;;;;;;;;;4978221;28;20043;-93
2022/10/31 05:20:28;;;;;;;43.50;24.40;;;;;;;;;;4992911;28;20030;-93
2022/10/31 05:23:09;;;;;;;40.90;23.30;;;;;;;;;;4974157;28;20046;-95
2022/10/31 05:25:36;;;;;;;48.25;24.75;;;;;;;;;;4992733;28;20089;-92
2022/10/31 05:28:02;;;;;;;50.05;24.20;;;;;;;;;;4956551;28;20042;-94
2022/10/31 05:30:38;;;;;;;46.65;24.02;;;;;;;;;;5006937;28;20590;-91
2022/10/31 05:33:13;;;;;;;42.58;24.88;;;;;;;;;;4939698;28;20049;-94
2022/10/31 05:35:42;;;;;;;52.00;25.50;;;;;;;;;;4981427;28;20516;-94
2022/10/31 05:38:15;;;;;;;44.58;24.45;;;;;;;;;;4977703;28;20050;-89
2022/10/31 05:40:41;;;;;;;45.42;25.02;;;;;;;;;;4958937;28;20384;-92
2022/10/31 05:43:07;;;;;;;48.20;25.83;;;;;;;;;;5005656;28;20045;-91
2022/10/31 05:45:33;;;;;;;47.72;25.63;;;;;;;;;;4957598;28;20145;-91
2022/10/31 05:48:03;;;;;;;55.60;27.70;;;;;;;;;;4989715;28;20070;-91
2022/10/31 05:50:30;;;;;;;48.45;26.42;;;;;;;;;;4988356;28;20524;-92
2022/10/31 05:52:58;;;;;;;51.55;27.35;;;;;;;;;;5004801;28;20056;-91
2022/10/31 05:55:25;;;;;;;64.78;25.10;;;;;;;;;;4958946;28;20043;-92
2022/10/31 05:57:52;;;;;;;69.00;26.17;;;;;;;;;;4956687;28;20072;-91
2022/10/31 06:00:28;;;;;;;74.55;26.95;;;;;;;;;;4956328;28;20046;-92
2022/10/31 06:03:01;;;;;;;64.82;25.95;;;;;;;;;;4957797;28;20043;-90
2022/10/31 06:05:27;;;;;;;51.75;25.48;;;;;;;;;;4986167;28;20043;-92
2022/10/31 06:07:54;;;;;;;43.25;25.17;;;;;;;;;;5010268;28;20049;-87
2022/10/31 06:10:20;;;;;;;51.33;26.92;;;;;;;;;;4957511;28;20050;-86
2022/10/31 06:12:47;;;;;;;51.45;27.17;;;;;;;;;;4991345;28;20545;-92
2022/10/31 06:15:13;;;;;;;53.67;27.42;;;;;;;;;;5005556;28;20050;-88
2022/10/31 06:17:39;;;;;;;48.20;27.05;;;;;;;;;;4995655;28;20050;-93
2022/10/31 06:20:06;;;;;;;52.20;26.95;;;;;;;;;;5009259;28;20110;-93
2022/10/31 06:22:32;;;;;;;48.88;25.58;;;;;;;;;;5007930;28;20046;-88
2022/10/31 06:24:58;;;;;;;46.03;25.88;;;;;;;;;;4955604;28;20043;-92
2022/10/31 06:27:24;;;;;;;48.53;26.48;;;;;;;;;;4995839;28;20053;-90
2022/10/31 06:29:51;;;;;;;44.70;26.98;;;;;;;;;;4973747;28;20078;-93
2022/10/31 06:32:17;;;;;;;45.40;27.75;;;;;;;;;;4975164;28;20113;-92
2022/10/31 06:34:43;;;;;;;47.35;26.45;;;;;;;;;;4994185;28;20455;-91
2022/10/31 06:37:10;;;;;;;50.50;28.38;;;;;;;;;;4988434;28;20055;-90
2022/10/31 06:39:36;;;;;;;53.90;28.77;;;;;;;;;;4987902;28;20054;-94
2022/10/31 06:42:03;;;;;;;48.85;27.27;;;;;;;;;;4990776;28;20089;-93
2022/10/31 06:44:29;;;;;;;51.95;30.33;;;;;;;;;;4988892;28;20058;-89
2022/10/31 06:47:01;;;;;;;51.92;27.48;;;;;;;;;;4991383;28;20045;-89
2022/10/31 06:49:36;;;;;;;47.08;28.00;;;;;;;;;;5004747;28;20396;-89
2022/10/31 06:52:04;;;;;;;56.63;28.58;;;;;;;;;;4956662;28;20096;-89
2022/10/31 06:54:45;;;;;;;57.40;28.98;;;;;;;;;;4998241;28;20121;-91
2022/10/31 06:57:14;;;;;;;48.30;25.80;;;;;;;;;;4974632;28;20073;-92
2022/10/31 06:59:40;;;;;;;46.05;27.73;;;;;;;;;;4973064;28;20038;-89
2022/10/31 07:02:08;;;;;;;48.30;27.65;;;;;;;;;;4977707;28;20043;-87
2022/10/31 07:04:34;;;;;;;58.28;29.90;;;;;;;;;;4974480;28;20141;-90
2022/10/31 07:07:03;;;;;;;51.70;27.15;;;;;;;;;;4955179;28;20578;-87
2022/10/31 07:09:47;;;;;;;45.22;27.48;;;;;;;;;;4981745;28;20624;-91
2022/10/31 07:12:17;;;;;;;52.60;29.15;;;;;;;;;;4990056;28;20218;-91
2022/10/31 07:14:43;;;;;;;47.08;28.15;;;;;;;;;;4952092;28;20059;-90
2022/10/31 07:17:09;;;;;;;52.35;28.83;;;;;;;;;;4995590;28;20057;-89
2022/10/31 07:19:35;;;;;;;46.80;27.60;;;;;;;;;;4946721;28;20058;-89
2022/10/31 07:22:06;;;;;;;52.72;29.40;;;;;;;;;;4970380;28;20653;-90
2022/10/31 07:24:32;;;;;;;46.35;27.27;;;;;;;;;;4973417;28;20054;-89
2022/10/31 07:26:58;;;;;;;57.28;30.40;;;;;;;;;;4956380;28;20071;-89
2022/10/31 07:29:24;;;;;;;50.15;29.23;;;;;;;;;;4990837;28;20049;-90
2022/10/31 07:31:50;;;;;;;48.65;28.75;;;;;;;;;;4967352;28;20047;-89
2022/10/31 07:34:16;;;;;;;52.08;29.70;;;;;;;;;;4957194;28;20200;-92
2022/10/31 07:36:51;;;;;;;48.72;28.55;;;;;;;;;;4950784;28;20050;-91
2022/10/31 07:39:21;;;;;;;51.17;29.00;;;;;;;;;;4960522;28;20046;-91
2022/10/31 07:41:47;;;;;;;64.00;31.98;;;;;;;;;;4964213;28;20142;-88
2022/10/31 07:44:22;;;;;;;64.38;33.30;;;;;;;;;;4948592;28;20133;-90
2022/10/31 07:46:51;;;;;;;57.80;34.55;;;;;;;;;;4959367;28;20046;-88
2022/10/31 07:49:18;;;;;;;68.40;37.60;;;;;;;;;;4971640;28;20101;-88
2022/10/31 07:51:44;;;;;;;68.18;37.40;;;;;;;;;;4953162;28;20133;-89
2022/10/31 07:54:10;;;;;;;69.60;38.10;;;;;;;;;;4955324;28;20047;-89
2022/10/31 07:56:42;;;;;;;63.88;37.65;;;;;;;;;;4965892;28;20048;-90
2022/10/31 07:59:08;;;;;;;66.80;37.47;;;;;;;;;;4947400;28;20054;-90
2022/10/31 08:01:34;;;;;;;62.22;36.38;;;;;;;;;;4954311;28;20526;-90
2022/10/31 08:04:00;;;;;;;61.50;36.50;;;;;;;;;;4972595;28;20103;-88
2022/10/31 08:06:26;;;;;;;63.90;36.80;;;;;;;;;;4941140;28;20529;-89
2022/10/31 08:09:01;;;;;;;59.88;35.63;;;;;;;;;;4979710;28;20379;-90
2022/10/31 08:11:27;;;;;;;59.03;34.75;;;;;;;;;;4983371;28;20058;-90
2022/10/31 08:13:59;;;;;;;59.13;33.40;;;;;;;;;;4929183;28;20050;-90
2022/10/31 08:16:28;;;;;;;52.10;33.17;;;;;;;;;;4990127;28;20451;-89
2022/10/31 08:18:57;;;;;;;53.78;32.80;;;;;;;;;;4962431;28;20784;-90
2022/10/31 08:21:23;;;;;;;50.22;31.02;;;;;;;;;;5000238;28;20085;-88
2022/10/31 08:23:53;;;;;;;52.83;31.77;;;;;;;;;;4987694;28;20054;-89
2022/10/31 08:26:19;;;;;;;55.47;32.35;;;;;;;;;;4967057;28;20093;-88
2022/10/31 08:28:46;;;;;;;51.35;30.90;;;;;;;;;;4978396;28;20501;-91
2022/10/31 08:31:15;;;;;;;53.53;31.45;;;;;;;;;;4979475;28;21128;-89
2022/10/31 08:33:54;;;;;;;42.25;29.15;;;;;;;;;;4983553;28;20049;-92
2022/10/31 08:36:23;;;;;;;43.38;30.63;;;;;;;;;;4995981;28;20046;-89
2022/10/31 08:38:49;;;;;;;42.00;29.35;;;;;;;;;;4970139;28;20403;-89
2022/10/31 08:41:15;;;;;;;46.88;29.00;;;;;;;;;;4971241;28;20053;-91
2022/10/31 08:43:42;;;;;;;44.25;29.70;;;;;;;;;;4990046;28;20473;-88
2022/10/31 08:46:08;;;;;;;45.00;28.85;;;;;;;;;;4988419;28;20050;-90
2022/10/31 08:48:34;;;;;;;41.55;28.88;;;;;;;;;;4971071;28;20042;-90
2022/10/31 08:51:00;;;;;;;39.03;28.08;;;;;;;;;;4962903;28;20046;-90
2022/10/31 08:53:26;;;;;;;51.88;29.75;;;;;;;;;;5002155;28;20050;-89
2022/10/31 08:55:56;;;;;;;45.70;30.75;;;;;;;;;;4967107;28;20053;-91
2022/10/31 08:58:35;;;;;;;40.88;28.48;;;;;;;;;;4980126;28;20085;-87
2022/10/31 09:01:01;;;;;;;46.33;29.20;;;;;;;;;;4980950;28;20049;-90
2022/10/31 09:03:37;;;;;;;39.45;26.90;;;;;;;;;;4952178;28;20061;-91
2022/10/31 09:06:08;;;;;;;47.33;28.95;;;;;;;;;;4973069;28;20038;-90
2022/10/31 09:08:35;;;;;;;40.75;28.35;;;;;;;;;;4981975;28;20042;-90
2022/10/31 09:11:01;;;;;;;40.85;27.95;;;;;;;;;;4979153;28;20098;-91
2022/10/31 09:13:27;;;;;;;43.30;28.25;;;;;;;;;;4984411;28;20126;-88
2022/10/31 09:15:56;;;;;;;42.60;28.98;;;;;;;;;;4988048;28;20038;-90
2022/10/31 09:18:23;;;;;;;42.97;27.75;;;;;;;;;;5004858;28;20054;-90
2022/10/31 09:21:02;;;;;;;43.80;29.05;;;;;;;;;;4985729;28;20035;-89
2022/10/31 09:23:28;;;;;;;41.05;28.13;;;;;;;;;;4987823;28;20046;-90
2022/10/31 09:25:55;;;;;;;35.20;26.60;;;;;;;;;;4981944;28;20038;-90
2022/10/31 09:28:23;;;;;;;37.90;27.52;;;;;;;;;;4999450;28;20078;-90
2022/10/31 09:30:50;;;;;;;37.88;26.90;;;;;;;;;;4985655;28;20050;-89
2022/10/31 09:33:16;;;;;;;39.63;26.10;;;;;;;;;;4987697;28;21053;-89
2022/10/31 09:35:42;;;;;;;33.42;24.33;;;;;;;;;;4986674;28;20038;-88
2022/10/31 09:38:16;;;;;;;35.85;25.00;;;;;;;;;;4990186;28;20046;-90
2022/10/31 09:41:01;;;;;;;31.27;24.00;;;;;;;;;;4968516;28;20093;-87
2022/10/31 09:43:56;;;;;;;34.15;23.60;;;;;;;;;;4985407;28;20049;-87
2022/10/31 09:46:26;;;;;;;41.50;25.42;;;;;;;;;;4969977;28;20051;-87
2022/10/31 09:49:10;;;;;;;32.78;25.55;;;;;;;;;;4986013;28;20053;-88
2022/10/31 09:51:42;;;;;;;30.65;22.88;;;;;;;;;;5000517;28;20380;-89
2022/10/31 09:54:15;;;;;;;34.60;22.15;;;;;;;;;;4981716;28;20109;-89
2022/10/31 09:56:44;;;;;;;30.02;21.08;;;;;;;;;;4971010;28;20054;-87
2022/10/31 09:59:19;;;;;;;27.92;19.75;;;;;;;;;;4977160;28;20039;-87
2022/10/31 10:01:47;;;;;;;29.90;20.58;;;;;;;;;;4953414;28;20050;-88
2022/10/31 10:04:16;;;;;;;30.38;20.42;;;;;;;;;;4988487;28;20059;-88
2022/10/31 10:06:45;;;;;;;27.30;19.52;;;;;;;;;;4991940;28;20073;-87
2022/10/31 10:09:11;;;;;;;27.33;19.88;;;;;;;;;;4952836;28;20042;-86
2022/10/31 10:11:52;;;;;;;31.83;20.10;;;;;;;;;;4998647;28;20058;-87
2022/10/31 10:14:21;;;;;;;26.45;18.98;;;;;;;;;;4978522;28;20133;-87
2022/10/31 10:16:59;;;;;;;29.10;19.13;;;;;;;;;;4964678;28;20543;-86
2022/10/31 10:19:44;;;;;;;22.38;17.27;;;;;;;;;;4999975;28;20105;-86
2022/10/31 10:22:24;;;;;;;23.20;16.58;;;;;;;;;;4985670;28;20050;-87
2022/10/31 10:24:50;;;;;;;22.05;14.98;;;;;;;;;;4986827;28;20038;-88
2022/10/31 10:27:42;;;;;;;22.48;15.05;;;;;;;;;;4998775;28;20050;-87
2022/10/31 10:30:14;;;;;;;17.33;14.18;;;;;;;;;;4962631;28;20053;-87
2022/10/31 10:32:59;;;;;;;16.65;13.02;;;;;;;;;;4967287;28;20077;-87
2022/10/31 10:35:34;;;;;;;19.95;11.80;;;;;;;;;;4958971;28;20141;-87
2022/10/31 10:38:19;;;;;;;17.98;12.32;;;;;;;;;;4981829;28;20108;-89
2022/10/31 10:40:46;;;;;;;22.15;12.23;;;;;;;;;;4985946;28;20053;-87
2022/10/31 10:43:24;;;;;;;19.98;12.98;;;;;;;;;;4982615;28;20059;-87
2022/10/31 10:49:09;;;;;;;17.13;12.82;;;;;;;;;;4978854;28;20050;-87
2022/10/31 10:51:47;;;;;;;15.60;11.85;;;;;;;;;;4975543;28;20518;-87
2022/10/31 10:54:25;;;;;;;17.25;12.10;;;;;;;;;;4982550;28;20056;-88
2022/10/31 10:57:02;;;;;;;18.90;12.77;;;;;;;;;;4983162;28;20050;-87
2022/10/31 10:59:30;;;;;;;20.83;13.57;;;;;;;;;;4985116;28;20034;-88
2022/10/31 11:01:56;;;;;;;18.83;12.20;;;;;;;;;;4987835;28;20058;-87
2022/10/31 11:04:25;;;;;;;17.50;11.57;;;;;;;;;;4986601;28;20527;-88
2022/10/31 11:06:59;;;;;;;21.10;11.85;;;;;;;;;;4981909;28;20085;-88
2022/10/31 11:09:28;;;;;;;21.95;12.05;;;;;;;;;;4981625;28;20042;-89
2022/10/31 11:11:58;;;;;;;17.48;12.70;;;;;;;;;;4983659;28;20054;-88
2022/10/31 11:14:24;;;;;;;22.95;13.30;;;;;;;;;;5002675;28;20049;-86
2022/10/31 11:17:10;;;;;;;18.40;12.70;;;;;;;;;;4988580;28;20450;-87
2022/10/31 11:19:42;;;;;;;19.30;12.38;;;;;;;;;;4987757;28;20088;-89
2022/10/31 11:22:14;;;;;;;22.38;14.02;;;;;;;;;;4969399;28;20046;-87
2022/10/31 11:24:41;;;;;;;19.08;12.45;;;;;;;;;;5000342;28;20046;-88
2022/10/31 11:27:21;;;;;;;19.98;13.75;;;;;;;;;;4969681;28;20098;-87
2022/10/31 11:29:49;;;;;;;19.25;13.18;;;;;;;;;;4987511;28;20054;-88
2022/10/31 11:32:24;;;;;;;18.92;12.75;;;;;;;;;;4988068;28;20081;-87
2022/10/31 11:34:53;;;;;;;21.45;12.98;;;;;;;;;;4986650;28;20525;-88
2022/10/31 11:37:29;;;;;;;17.50;12.60;;;;;;;;;;5002503;28;20035;-88
2022/10/31 11:40:06;;;;;;;18.55;11.95;;;;;;;;;;4990061;28;20042;-90
2022/10/31 11:42:38;;;;;;;17.42;10.20;;;;;;;;;;4985164;28;20043;-87
2022/10/31 11:45:27;;;;;;;16.63;9.75;;;;;;;;;;4989666;28;20069;-86
2022/10/31 11:47:55;;;;;;;16.75;9.65;;;;;;;;;;4962501;28;20596;-87
2022/10/31 11:50:41;;;;;;;14.40;9.63;;;;;;;;;;4984660;28;20048;-87
2022/10/31 11:53:18;;;;;;;17.23;9.40;;;;;;;;;;4960145;28;20042;-89
2022/10/31 11:55:45;;;;;;;14.43;9.57;;;;;;;;;;4970239;28;20061;-87
2022/10/31 11:58:22;;;;;;;19.73;10.95;;;;;;;;;;4988610;28;20057;-87
2022/10/31 12:00:52;;;;;;;22.58;11.25;;;;;;;;;;4953537;28;20049;-87
2022/10/31 12:03:34;;;;;;;16.25;10.57;;;;;;;;;;5004680;28;20054;-88
2022/10/31 12:06:00;;;;;;;15.45;10.50;;;;;;;;;;4971810;28;20162;-89
2022/10/31 12:08:37;;;;;;;17.85;11.05;;;;;;;;;;4973033;28;20042;-88
2022/10/31 12:17:54;;;;;;;16.30;10.70;;;;;;;;;;4979962;28;20057;-90
2022/10/31 12:20:56;;;;;;;20.73;11.07;;;;;;;;;;4975216;28;20502;-89
2022/10/31 12:23:56;;;;;;;19.23;11.60;;;;;;;;;;4895283;29;20433;-87
2022/10/31 12:26:34;;;;;;;17.00;11.02;;;;;;;;;;5001999;28;20058;-88
2022/10/31 12:29:19;;;;;;;18.02;9.32;;;;;;;;;;4960761;28;20046;-88
2022/10/31 12:32:12;;;;;;;19.30;9.82;;;;;;;;;;4987619;28;20096;-88
2022/10/31 12:35:09;;;;;;;18.23;9.60;;;;;;;;;;4956469;28;20145;-88
2022/10/31 12:38:00;;;;;;;18.15;9.30;;;;;;;;;;4972214;28;20502;-90
2022/10/31 12:40:45;;;;;;;18.38;10.18;;;;;;;;;;4975929;28;20105;-88
2022/10/31 12:43:11;;;;;;;13.75;9.93;;;;;;;;;;5002898;28;20466;-89
2022/10/31 12:45:59;;;;;;;14.32;9.10;;;;;;;;;;4987271;28;20045;-92
2022/10/31 12:48:44;;;;;;;16.35;8.88;;;;;;;;;;4977572;28;20050;-89
2022/10/31 12:51:33;;;;;;;20.63;9.40;;;;;;;;;;4954510;28;20081;-88
2022/10/31 12:54:21;;;;;;;15.25;8.15;;;;;;;;;;4988106;28;20072;-90
2022/10/31 12:56:47;;;;;;;16.48;8.60;;;;;;;;;;4969817;28;20050;-87
2022/10/31 12:59:13;;;;;;;15.20;9.07;;;;;;;;;;4987138;28;20132;-86
2022/10/31 13:01:49;;;;;;;16.77;9.18;;;;;;;;;;5003501;28;20044;-87
2022/10/31 13:04:21;;;;;;;15.55;9.00;;;;;;;;;;4986474;28;20039;-89
2022/10/31 13:07:02;;;;;;;15.52;8.32;;;;;;;;;;4988577;28;20050;-87
2022/10/31 13:09:54;;;;;;;13.98;8.60;;;;;;;;;;4976044;28;20043;-87
2022/10/31 13:12:21;;;;;;;17.95;9.00;;;;;;;;;;5001750;28;20482;-88
2022/10/31 13:14:50;;;;;;;15.00;8.35;;;;;;;;;;4987796;28;20049;-88
2022/10/31 13:17:39;;;;;;;13.68;8.70;;;;;;;;;;4970138;28;20078;-89
2022/10/31 13:20:27;;;;;;;16.85;10.25;;;;;;;;;;5006223;28;20061;-88
2022/10/31 13:23:17;;;;;;;21.02;11.82;;;;;;;;;;4989814;28;20057;-88
2022/10/31 13:26:00;;;;;;;18.27;11.73;;;;;;;;;;4961920;28;20400;-88
2022/10/31 13:28:45;;;;;;;18.73;12.07;;;;;;;;;;4971248;28;20046;-91
2022/10/31 13:31:11;;;;;;;19.20;12.00;;;;;;;;;;4988083;28;20077;-87
2022/10/31 13:33:47;;;;;;;20.40;12.73;;;;;;;;;;4971964;28;20046;-86
2022/10/31 13:36:36;;;;;;;20.65;12.30;;;;;;;;;;4952270;28;20081;-88
2022/10/31 13:39:34;;;;;;;19.75;12.65;;;;;;;;;;5002202;28;20431;-90
2022/10/31 13:42:14;;;;;;;22.98;13.50;;;;;;;;;;4989090;28;20495;-87
2022/10/31 13:44:40;;;;;;;22.50;12.70;;;;;;;;;;4971561;28;20039;-88
2022/10/31 13:47:38;;;;;;;19.45;12.23;;;;;;;;;;5003525;28;20409;-87
2022/10/31 13:50:06;;;;;;;20.48;11.02;;;;;;;;;;4941848;28;20069;-87
2022/10/31 13:52:32;;;;;;;17.20;10.95;;;;;;;;;;4986439;28;20096;-87
2022/10/31 13:54:59;;;;;;;21.95;11.63;;;;;;;;;;4935976;28;20043;-87
2022/10/31 13:57:44;;;;;;;16.75;11.23;;;;;;;;;;4954550;28;20495;-88
2022/10/31 14:00:19;;;;;;;17.85;10.60;;;;;;;;;;4988937;28;20042;-88
2022/10/31 14:02:48;;;;;;;19.05;10.43;;;;;;;;;;4966538;28;20586;-88
2022/10/31 14:05:31;;;;;;;15.25;9.55;;;;;;;;;;4973743;28;20057;-91
2022/10/31 14:07:59;;;;;;;15.82;9.45;;;;;;;;;;4988793;28;20043;-88
2022/10/31 14:10:47;;;;;;;21.25;9.68;;;;;;;;;;5002114;28;20074;-88
2022/10/31 14:13:25;;;;;;;17.05;8.80;;;;;;;;;;4978502;28;20208;-88
2022/10/31 14:16:07;;;;;;;16.48;9.25;;;;;;;;;;4984189;28;20081;-91
2022/10/31 14:18:38;;;;;;;13.30;9.65;;;;;;;;;;4970324;28;20406;-90
2022/10/31 14:21:23;;;;;;;19.33;10.70;;;;;;;;;;5000302;28;20050;-87
2022/10/31 14:23:56;;;;;;;21.20;10.40;;;;;;;;;;4971884;28;20134;-90
2022/10/31 14:26:31;;;;;;;21.70;11.40;;;;;;;;;;4971423;28;20061;-89
2022/10/31 14:28:58;;;;;;;23.25;11.35;;;;;;;;;;4984734;28;20138;-90
2022/10/31 14:31:42;;;;;;;18.13;11.63;;;;;;;;;;4981435;28;20046;-88
2022/10/31 14:34:12;;;;;;;20.40;11.80;;;;;;;;;;4972004;28;20122;-87
2022/10/31 14:36:56;;;;;;;18.17;12.18;;;;;;;;;;4994903;28;20105;-89
2022/10/31 14:39:59;;;;;;;18.80;12.35;;;15.10;99.90;;;;;;4982679;28;20098;-91
2022/10/31 14:42:37;;;;;;;26.20;12.43;;;;;;;;;;4975673;28;20077;-90
2022/10/31 14:45:16;;;;;;;25.08;13.65;;;;;;;;;;4979740;28;20077;-89
2022/10/31 14:48:01;;;;;;;20.67;12.88;;;;;;;;;;4989869;28;20046;-92
2022/10/31 14:50:38;;;;;;;20.05;12.35;;;;;;;;;;4961878;28;20090;-91
2022/10/31 14:53:07;;;;;;;23.27;12.88;;;;;;;;;;5004092;28;20054;-92
2022/10/31 14:55:33;;;;;;;27.05;15.27;;;;;;;;;;4976719;28;20558;-89
2022/10/31 14:58:16;;;;;;;20.67;14.38;;;;;;;;;;5004965;28;20050;-93
2022/10/31 15:00:45;;;;;;;29.98;15.07;;;;;;;;;;4957953;28;20046;-91